YXU weather

London Airport
London, Ontario, Canada

Public forecast

Using degrees Celsius for public forecast. Weather courtesy of forecast.io.

Current aviation weather report (METAR) for London Airport

Retrieved 2019/11/22 22:00 UTC (22 minutes ago):

CYXU 222200Z 29008KT 15SM OVC033 M00/M06 A3006 RMK SC8 SLP192

Aviation forecast (TAF) for London Airport

Retrieved 2019/11/22 18:45 UTC (4 hours ago):

TAF CYXU 221738Z 2218/2318 30015G25KT 4SM -SHSN FEW008 BKN020 TEMPO 2218/2221 P6SM NSW BKN030 FM222100 30012G22KT P6SM BKN030 TEMPO 2221/2224 BKN020 BECMG 2222/2224 27008KT FM230300 26006KT P6SM FEW030 TEMPO 2308/2312 4SM BR FM231400 23008KT P6SM SKC RMK NXT FCST BY 230000Z